createdAt,value
2016-12-21T00:00:10.096Z,-0.34
2016-12-21T00:01:10.084Z,-0.37
2016-12-21T00:02:10.363Z,-0.41
2016-12-21T00:03:10.054Z,-0.53
2016-12-21T00:04:10.038Z,-0.55
2016-12-21T00:05:10.023Z,-0.56
2016-12-21T00:06:10.005Z,-0.5
2016-12-21T00:07:09.988Z,-0.52
2016-12-21T00:08:09.973Z,-0.5
2016-12-21T00:09:09.962Z,-0.55
2016-12-21T00:10:09.947Z,-0.5
2016-12-21T00:11:09.931Z,-0.49
2016-12-21T00:12:09.913Z,-0.5
2016-12-21T00:13:09.900Z,-0.47
2016-12-21T00:14:09.880Z,-0.47
2016-12-21T00:15:09.865Z,-0.45
2016-12-21T00:16:09.851Z,-0.38
2016-12-21T00:17:09.838Z,-0.37
2016-12-21T00:18:09.822Z,-0.21
2016-12-21T00:19:09.804Z,-0.2
2016-12-21T00:20:09.786Z,-0.13
2016-12-21T00:21:09.773Z,-0.09
2016-12-21T00:22:09.758Z,-0.13
2016-12-21T00:23:10.076Z,-0.14
2016-12-21T00:24:09.724Z,-0.34
2016-12-21T00:25:09.708Z,-0.37
2016-12-21T00:26:09.691Z,-0.37
2016-12-21T00:27:09.677Z,-0.37
2016-12-21T00:28:09.661Z,-0.34
2016-12-21T00:29:09.945Z,-0.26
2016-12-21T00:30:09.633Z,-0.31
2016-12-21T00:31:09.614Z,-0.23
2016-12-21T00:32:09.602Z,-0.26
2016-12-21T00:33:09.582Z,-0.23
2016-12-21T00:34:09.567Z,-0.35
2016-12-21T00:35:09.553Z,-0.38
2016-12-21T00:36:09.537Z,-0.32
2016-12-21T00:37:09.524Z,-0.23
2016-12-21T00:38:09.509Z,-0.35
2016-12-21T00:39:09.497Z,-0.31
2016-12-21T00:40:09.476Z,-0.3
2016-12-21T00:41:09.464Z,-0.38
2016-12-21T00:42:09.443Z,-0.39
2016-12-21T00:43:09.483Z,-0.41
2016-12-21T00:44:09.414Z,-0.42
2016-12-21T00:45:09.404Z,-0.45
2016-12-21T00:46:09.384Z,-0.37
2016-12-21T00:47:09.365Z,-0.34
2016-12-21T00:48:09.350Z,-0.31
2016-12-21T00:49:09.638Z,-0.19
2016-12-21T00:50:09.321Z,-0.05
2016-12-21T00:51:09.310Z,-0.03
2016-12-21T00:52:09.289Z,0.19
2016-12-21T00:53:09.278Z,0.25
2016-12-21T00:54:09.259Z,0.23
2016-12-21T00:55:09.242Z,0.19
2016-12-21T00:56:09.229Z,0.19
2016-12-21T00:57:09.213Z,0.19
2016-12-21T00:58:09.501Z,0.22
2016-12-21T00:59:09.179Z,0.25
2016-12-21T01:00:09.167Z,0.23
2016-12-21T01:01:09.152Z,0.12
2016-12-21T01:02:09.135Z,0.17
2016-12-21T01:03:09.121Z,-0.01
2016-12-21T01:04:09.315Z,-0.12
2016-12-21T01:05:09.293Z,-0.05
2016-12-21T01:06:09.075Z,-0.01
2016-12-21T01:07:09.063Z,-0.12
2016-12-21T01:08:09.046Z,-0.13
2016-12-21T01:09:09.028Z,-0.19
2016-12-21T01:10:09.014Z,-0.16
2016-12-21T01:11:08.996Z,-0.14
2016-12-21T01:12:08.979Z,-0.21
2016-12-21T01:13:08.963Z,-0.42
2016-12-21T01:14:08.950Z,-0.39
2016-12-21T01:15:08.934Z,-0.53
2016-12-21T01:16:08.922Z,-0.58
2016-12-21T01:17:08.903Z,-0.68
2016-12-21T01:18:08.888Z,-0.6
2016-12-21T01:19:08.875Z,-0.67
2016-12-21T01:20:08.856Z,-0.6
2016-12-21T01:21:08.841Z,-0.55
2016-12-21T01:22:08.827Z,-0.27
2016-12-21T01:23:08.810Z,-0.12
2016-12-21T01:24:08.795Z,-0.05
2016-12-21T01:25:08.781Z,-0.05
2016-12-21T01:26:08.761Z,-0.03
2016-12-21T01:27:08.746Z,0.05
2016-12-21T01:28:08.732Z,0.13
2016-12-21T01:29:08.718Z,0.19
2016-12-21T01:30:08.698Z,0.1
2016-12-21T01:31:08.680Z,0.15
2016-12-21T01:32:08.666Z,0.16
2016-12-21T01:33:08.651Z,0.23
2016-12-21T01:34:08.843Z,0.22
2016-12-21T01:35:08.616Z,0.23
2016-12-21T01:36:08.607Z,0.23
2016-12-21T01:37:08.587Z,0.26
2016-12-21T01:38:08.568Z,0.23
2016-12-21T01:39:08.553Z,0.31
2016-12-21T01:40:08.536Z,0.23
2016-12-21T01:41:08.527Z,0.37
2016-12-21T01:42:08.502Z,0.35
2016-12-21T01:43:08.489Z,0.2
2016-12-21T01:44:08.477Z,0.12
2016-12-21T01:45:08.461Z,0.01
2016-12-21T01:46:08.442Z,-0.06
2016-12-21T01:47:08.422Z,-0.03
2016-12-21T01:48:08.409Z,-0.12
2016-12-21T01:49:08.392Z,-0.03
2016-12-21T01:50:08.381Z,0.01
2016-12-21T01:51:08.363Z,-0.06
2016-12-21T01:52:08.352Z,-0.05
2016-12-21T01:53:08.332Z,-0.02
2016-12-21T01:54:08.325Z,-0.08
2016-12-21T01:55:08.603Z,0.01
2016-12-21T01:56:08.284Z,0.05
2016-12-21T01:57:08.276Z,0.13
2016-12-21T01:58:08.255Z,0.22
2016-12-21T01:59:08.240Z,0.17
2016-12-21T02:00:08.223Z,0.3
2016-12-21T02:01:08.207Z,0.16
2016-12-21T02:02:08.192Z,0.15
2016-12-21T02:03:08.383Z,0.1
2016-12-21T02:04:08.157Z,0.13
2016-12-21T02:05:08.448Z,0.1
2016-12-21T02:06:08.127Z,0.13
2016-12-21T02:07:08.115Z,0.13
2016-12-21T02:08:08.097Z,0.07
2016-12-21T02:09:08.082Z,0.13
2016-12-21T02:10:08.066Z,0.17
2016-12-21T02:11:08.047Z,0.12
2016-12-21T02:12:08.038Z,-0.03
2016-12-21T02:13:08.327Z,-0.02
2016-12-21T02:14:08.008Z,-0.09
2016-12-21T02:15:08.012Z,-0.14
2016-12-21T02:16:07.970Z,-0.14
2016-12-21T02:17:07.959Z,-0.05
2016-12-21T02:18:07.943Z,0.1
2016-12-21T02:19:07.926Z,0.05
2016-12-21T02:20:07.907Z,0.12
2016-12-21T02:21:07.897Z,0.01
2016-12-21T02:22:07.872Z,0.07
2016-12-21T02:23:07.859Z,0.13
2016-12-21T02:24:07.844Z,-0.02
2016-12-21T02:25:07.830Z,0.05
2016-12-21T02:26:07.815Z,0.13
2016-12-21T02:27:07.796Z,0.07
2016-12-21T02:28:07.780Z,-0.02
2016-12-21T02:29:07.770Z,-0.09
2016-12-21T02:30:07.749Z,-0.02
2016-12-21T02:31:07.735Z,-0.03
2016-12-21T02:32:07.719Z,-0.03
2016-12-21T02:33:07.907Z,-0.09
2016-12-21T02:34:07.690Z,-0.12
2016-12-21T02:35:07.674Z,-0.09
2016-12-21T02:36:07.653Z,-0.02
2016-12-21T02:37:07.638Z,-0.05
2016-12-21T02:38:07.934Z,-0.05
2016-12-21T02:39:07.606Z,-0.03
2016-12-21T02:40:07.591Z,-0.01
2016-12-21T02:41:07.577Z,-0.01
2016-12-21T02:42:07.559Z,0.01
2016-12-21T02:43:07.543Z,-0.02
2016-12-21T02:44:07.524Z,-0.06
2016-12-21T02:45:07.516Z,0.01
2016-12-21T02:46:07.494Z,-0.09
2016-12-21T02:47:07.485Z,-0.05
2016-12-21T02:48:07.462Z,-0.01
2016-12-21T02:49:07.447Z,-0.09
2016-12-21T02:50:07.432Z,0.08
2016-12-21T02:51:07.415Z,0.16
2016-12-21T02:52:07.396Z,0.1
2016-12-21T02:53:07.380Z,0.05
2016-12-21T02:54:07.363Z,0.12
2016-12-21T02:55:07.346Z,0.15
2016-12-21T02:56:07.327Z,0.07
2016-12-21T02:57:07.319Z,0.16
2016-12-21T02:58:07.297Z,0.22
2016-12-21T02:59:07.281Z,0.25
2016-12-21T03:00:07.263Z,0.13
2016-12-21T03:01:07.435Z,0.15
2016-12-21T03:02:07.440Z,0.17
2016-12-21T03:03:07.219Z,0.16
2016-12-21T03:04:07.198Z,0.15
2016-12-21T03:05:07.184Z,0.25
2016-12-21T03:06:07.165Z,0.26
2016-12-21T03:07:07.150Z,0.17
2016-12-21T03:08:07.133Z,0.31
2016-12-21T03:09:07.119Z,0.28
2016-12-21T03:10:07.100Z,0.28
2016-12-21T03:11:07.087Z,0.33
2016-12-21T03:12:07.067Z,0.19
2016-12-21T03:13:07.050Z,0.13
2016-12-21T03:14:07.035Z,0.26
2016-12-21T03:15:07.018Z,0.19
2016-12-21T03:16:07.333Z,0.08
2016-12-21T03:17:06.984Z,0.05
2016-12-21T03:18:06.965Z,0.1
2016-12-21T03:19:06.950Z,0.16
2016-12-21T03:20:06.964Z,0.04
2016-12-21T03:21:06.916Z,0.26
2016-12-21T03:22:06.899Z,0.23
2016-12-21T03:23:06.885Z,0.31
2016-12-21T03:24:06.887Z,0.22
2016-12-21T03:25:06.855Z,0.19
2016-12-21T03:26:06.836Z,0.17
2016-12-21T03:27:06.819Z,0.26
2016-12-21T03:28:06.805Z,0.33
2016-12-21T03:29:06.786Z,0.33
2016-12-21T03:30:06.770Z,0.26
2016-12-21T03:31:06.753Z,0.23
2016-12-21T03:32:06.740Z,0.23
2016-12-21T03:33:06.725Z,0.25
2016-12-21T03:34:06.705Z,0.22
2016-12-21T03:35:06.689Z,0.33
2016-12-21T03:36:06.672Z,0.19
2016-12-21T03:37:06.657Z,0.15
2016-12-21T03:38:06.666Z,0.12
2016-12-21T03:39:06.619Z,-0.01
2016-12-21T03:40:06.608Z,0.07
2016-12-21T03:41:06.590Z,0.08
2016-12-21T03:42:06.576Z,0.07
2016-12-21T03:43:06.558Z,0.02
2016-12-21T03:44:06.540Z,-0.01
2016-12-21T03:45:06.532Z,-0.19
2016-12-21T03:46:06.516Z,-0.17
2016-12-21T03:47:06.492Z,-0.17
2016-12-21T03:48:06.479Z,-0.16
2016-12-21T03:49:06.464Z,-0.09
2016-12-21T03:50:06.445Z,-0.13
2016-12-21T03:51:06.429Z,-0.06
2016-12-21T03:52:06.416Z,-0.08
2016-12-21T03:53:06.399Z,-0.13
2016-12-21T03:54:06.386Z,-0.02
2016-12-21T03:55:06.367Z,-0.05
2016-12-21T03:56:06.353Z,-0.02
2016-12-21T03:57:06.334Z,-0.01
2016-12-21T03:58:06.326Z,-0.09
2016-12-21T03:59:06.306Z,-0.06
2016-12-21T04:00:06.292Z,0.01
2016-12-21T04:01:06.276Z,-0.09
2016-12-21T04:02:06.257Z,-0.13
2016-12-21T04:03:06.246Z,-0.17
2016-12-21T04:04:06.227Z,-0.21
2016-12-21T04:05:06.211Z,-0.21
2016-12-21T04:06:06.194Z,-0.23
2016-12-21T04:07:06.181Z,-0.16
2016-12-21T04:08:06.164Z,-0.16
2016-12-21T04:09:06.149Z,-0.13
2016-12-21T04:10:06.141Z,-0.12
2016-12-21T04:11:06.117Z,-0.08
2016-12-21T04:12:06.100Z,-0.05
2016-12-21T04:13:06.084Z,-0.06
2016-12-21T04:14:06.067Z,-0.12
2016-12-21T04:15:06.059Z,-0.2
2016-12-21T04:16:06.035Z,-0.12
2016-12-21T04:17:06.021Z,-0.12
2016-12-21T04:18:06.007Z,-0.12
2016-12-21T04:19:05.988Z,-0.13
2016-12-21T04:20:05.974Z,-0.19
2016-12-21T04:21:05.958Z,-0.35
2016-12-21T04:22:05.942Z,-0.31
2016-12-21T04:23:05.921Z,-0.23
2016-12-21T04:24:05.908Z,-0.31
2016-12-21T04:25:05.920Z,-0.34
2016-12-21T04:26:05.876Z,-0.17
2016-12-21T04:27:05.859Z,-0.16
2016-12-21T04:28:05.844Z,-0.31
2016-12-21T04:29:05.827Z,-0.32
2016-12-21T04:30:05.808Z,-0.3
2016-12-21T04:31:05.820Z,-0.34
2016-12-21T04:32:05.777Z,-0.31
2016-12-21T04:33:05.761Z,-0.31
2016-12-21T04:34:05.745Z,-0.39
2016-12-21T04:35:05.729Z,-0.47
2016-12-21T04:36:05.720Z,-0.45
2016-12-21T04:37:05.698Z,-0.5
2016-12-21T04:38:05.682Z,-0.55
2016-12-21T04:39:05.671Z,-0.56
2016-12-21T04:40:05.653Z,-0.42
2016-12-21T04:41:05.633Z,-0.38
2016-12-21T04:42:05.623Z,-0.37
2016-12-21T04:43:05.605Z,-0.42
2016-12-21T04:44:05.589Z,-0.37
2016-12-21T04:45:05.576Z,-0.47
2016-12-21T04:46:05.557Z,-0.56
2016-12-21T04:47:05.843Z,-0.5
2016-12-21T04:48:05.523Z,-0.42
2016-12-21T04:49:05.514Z,-0.35
2016-12-21T04:50:05.494Z,-0.23
2016-12-21T04:51:05.481Z,-0.12
2016-12-21T04:52:05.461Z,-0.09
2016-12-21T04:53:05.446Z,-0.09
2016-12-21T04:54:05.429Z,-0.12
2016-12-21T04:55:05.414Z,-0.13
2016-12-21T04:56:05.396Z,-0.06
2016-12-21T04:57:05.379Z,-0.09
2016-12-21T04:58:05.366Z,-0.09
2016-12-21T04:59:05.349Z,-0.09
2016-12-21T05:00:05.332Z,-0.08
2016-12-21T05:01:05.316Z,-0.16
2016-12-21T05:02:05.301Z,-0.2
2016-12-21T05:03:05.286Z,-0.32
2016-12-21T05:04:05.265Z,-0.34
2016-12-21T05:05:05.252Z,-0.2
2016-12-21T05:06:05.234Z,-0.23
2016-12-21T05:07:05.219Z,-0.3
2016-12-21T05:08:05.205Z,-0.24
2016-12-21T05:09:05.187Z,-0.31
2016-12-21T05:10:05.172Z,-0.32
2016-12-21T05:11:05.156Z,-0.34
2016-12-21T05:12:05.139Z,-0.08
2016-12-21T05:13:05.121Z,0.02
2016-12-21T05:14:05.110Z,0.16
2016-12-21T05:15:05.092Z,0.13
2016-12-21T05:16:05.076Z,0.13
2016-12-21T05:17:05.061Z,0.12
2016-12-21T05:18:05.046Z,0.16
2016-12-21T05:19:05.026Z,0.12
2016-12-21T05:20:05.014Z,0.1
2016-12-21T05:21:04.995Z,0.1
2016-12-21T05:22:04.977Z,0.17
2016-12-21T05:23:04.970Z,0.15
2016-12-21T05:24:04.949Z,0.05
2016-12-21T05:25:04.930Z,0.12
2016-12-21T05:26:04.915Z,0.1
2016-12-21T05:27:04.898Z,0.1
2016-12-21T05:28:04.885Z,0.08
2016-12-21T05:29:04.867Z,0.13
2016-12-21T05:30:04.851Z,0.16
2016-12-21T05:31:04.836Z,0.17
2016-12-21T05:32:05.298Z,-0.05
2016-12-21T05:33:04.811Z,-0.13
2016-12-21T05:34:04.789Z,-0.01
2016-12-21T05:35:04.774Z,-0.08
2016-12-21T05:36:04.757Z,-0.17
2016-12-21T05:37:04.742Z,-0.2
2016-12-21T05:38:04.728Z,-0.14
2016-12-21T05:39:04.713Z,-0.26
2016-12-21T05:40:04.697Z,-0.16
2016-12-21T05:41:04.677Z,-0.13
2016-12-21T05:42:04.665Z,-0.03
2016-12-21T05:43:04.647Z,-0.03
2016-12-21T05:44:04.631Z,-0.09
2016-12-21T05:45:04.614Z,-0.13
2016-12-21T05:46:04.599Z,-0.14
2016-12-21T05:47:04.585Z,-0.3
2016-12-21T05:48:04.569Z,-0.35
2016-12-21T05:49:04.553Z,-0.35
2016-12-21T05:50:04.536Z,-0.41
2016-12-21T05:51:04.527Z,-0.37
2016-12-21T05:52:04.512Z,-0.42
2016-12-21T05:53:04.490Z,-0.38
2016-12-21T05:54:04.473Z,-0.42
2016-12-21T05:55:04.459Z,-0.38
2016-12-21T05:56:04.443Z,-0.24
2016-12-21T05:57:04.427Z,-0.21
2016-12-21T05:58:04.451Z,-0.14
2016-12-21T05:59:04.395Z,-0.09
2016-12-21T06:00:04.381Z,-0.09
2016-12-21T06:01:04.364Z,-0.13
2016-12-21T06:02:04.378Z,-0.17
2016-12-21T06:03:04.331Z,-0.31
2016-12-21T06:04:04.315Z,-0.2
2016-12-21T06:05:04.304Z,-0.32
2016-12-21T06:06:04.285Z,-0.21
2016-12-21T06:07:04.272Z,-0.05
2016-12-21T06:08:04.253Z,-0.06
2016-12-21T06:09:04.239Z,-0.02
2016-12-21T06:10:04.224Z,-0.02
2016-12-21T06:11:04.209Z,-0.13
2016-12-21T06:12:04.195Z,-0.06
2016-12-21T06:13:04.173Z,0.04
2016-12-21T06:14:04.157Z,0.12
2016-12-21T06:15:04.146Z,0.25
2016-12-21T06:16:04.126Z,0.26
2016-12-21T06:17:04.113Z,0.35
2016-12-21T06:18:04.103Z,0.37
2016-12-21T06:19:04.080Z,0.38
2016-12-21T06:20:04.061Z,0.37
2016-12-21T06:21:04.047Z,0.53
2016-12-21T06:22:04.042Z,0.59
2016-12-21T06:23:04.016Z,0.71
2016-12-21T06:24:04.002Z,0.75
2016-12-21T06:25:03.988Z,0.78
2016-12-21T06:26:03.971Z,0.84
2016-12-21T06:27:03.954Z,0.8
2016-12-21T06:28:03.936Z,0.8
2016-12-21T06:29:03.923Z,0.77
2016-12-21T06:30:03.911Z,0.77
2016-12-21T06:31:03.899Z,0.82
2016-12-21T06:32:03.879Z,0.84
2016-12-21T06:33:03.863Z,0.98
2016-12-21T06:34:03.849Z,0.99
2016-12-21T06:35:03.836Z,0.89
2016-12-21T06:36:03.857Z,0.89
2016-12-21T06:37:03.806Z,0.75
2016-12-21T06:38:03.788Z,0.67
2016-12-21T06:39:03.781Z,0.64
2016-12-21T06:40:03.755Z,0.63
2016-12-21T06:41:03.741Z,0.71
2016-12-21T06:42:03.725Z,0.84
2016-12-21T06:43:03.709Z,0.78
2016-12-21T06:44:03.702Z,0.8
2016-12-21T06:45:03.677Z,0.77
2016-12-21T06:46:03.693Z,0.78
2016-12-21T06:47:03.676Z,0.64
2016-12-21T06:48:03.633Z,0.74
2016-12-21T06:49:03.617Z,0.72
2016-12-21T06:50:03.604Z,0.7
2016-12-21T06:51:03.590Z,0.63
2016-12-21T06:52:03.573Z,0.62
2016-12-21T06:53:03.557Z,0.63
2016-12-21T06:54:03.545Z,0.7
2016-12-21T06:55:03.528Z,0.48
2016-12-21T06:56:03.514Z,0.4
2016-12-21T06:57:03.502Z,0.2
2016-12-21T06:58:03.482Z,0.25
2016-12-21T06:59:03.473Z,0.16
2016-12-21T07:00:03.455Z,0.2
2016-12-21T07:01:03.440Z,0.19
2016-12-21T07:02:03.426Z,0.22
2016-12-21T07:03:03.412Z,0.2
2016-12-21T07:04:03.389Z,0.49
2016-12-21T07:05:03.390Z,0.75
2016-12-21T07:06:03.360Z,0.89
2016-12-21T07:07:03.649Z,1.1
2016-12-21T07:08:03.333Z,1.21
2016-12-21T07:09:03.316Z,1.31
2016-12-21T07:10:03.332Z,1.42
2016-12-21T07:11:03.283Z,1.43
2016-12-21T07:12:03.272Z,1.42
2016-12-21T07:13:03.254Z,1.49
2016-12-21T07:14:03.240Z,1.63
2016-12-21T07:15:03.227Z,1.67
2016-12-21T07:16:03.211Z,1.75
2016-12-21T07:17:03.196Z,1.83
2016-12-21T07:18:03.176Z,1.89
2016-12-21T07:19:03.162Z,2.02
2016-12-21T07:20:03.151Z,2.09
2016-12-21T07:21:03.134Z,2.11
2016-12-21T07:22:03.126Z,2.04
2016-12-21T07:23:03.107Z,2.18
2016-12-21T07:24:03.093Z,2.32
2016-12-21T07:25:03.076Z,2.41
2016-12-21T07:26:03.066Z,2.58
2016-12-21T07:27:03.195Z,2.56
2016-12-21T07:28:03.034Z,2.63
2016-12-21T07:29:03.015Z,2.74
2016-12-21T07:30:03.307Z,2.8
2016-12-21T07:31:02.990Z,3.04
2016-12-21T07:32:02.980Z,3.12
2016-12-21T07:33:02.966Z,3.1
2016-12-21T07:34:02.951Z,3.25
2016-12-21T07:35:02.959Z,3.28
2016-12-21T07:36:02.922Z,2.92
2016-12-21T07:37:02.903Z,2.76
2016-12-21T07:38:03.199Z,2.81
2016-12-21T07:39:02.878Z,2.86
2016-12-21T07:40:02.864Z,3.13
2016-12-21T07:41:02.853Z,3.45
2016-12-21T07:42:02.840Z,3.75
2016-12-21T07:43:02.831Z,3.77
2016-12-21T07:44:02.809Z,4.11
2016-12-21T07:45:02.798Z,4.34
2016-12-21T07:46:02.781Z,4.67
2016-12-21T07:47:02.777Z,4.75
2016-12-21T07:48:02.754Z,5.04
2016-12-21T07:49:02.746Z,5.17
2016-12-21T07:50:02.729Z,4.93
2016-12-21T07:51:02.718Z,4.97
2016-12-21T07:52:02.745Z,5.06
2016-12-21T07:53:02.692Z,5.17
2016-12-21T07:54:02.680Z,5.23
2016-12-21T07:55:02.671Z,4.94
2016-12-21T07:56:02.652Z,5.04
2016-12-21T07:57:02.637Z,5.04
2016-12-21T07:58:02.626Z,5.4
2016-12-21T07:59:02.616Z,5.8
2016-12-21T08:00:02.603Z,6.1
2016-12-21T08:01:02.589Z,6.55
2016-12-21T08:02:02.576Z,6.76
2016-12-21T08:03:02.864Z,6.81
2016-12-21T08:04:02.555Z,6.4
2016-12-21T08:05:02.552Z,5.8
2016-12-21T08:06:02.526Z,5.81
2016-12-21T08:07:02.521Z,6.06
2016-12-21T08:08:02.507Z,5.83
2016-12-21T08:09:02.495Z,5.77
2016-12-21T08:10:02.519Z,5.41
2016-12-21T08:11:02.472Z,5.06
2016-12-21T08:12:02.459Z,4.9
2016-12-21T08:13:02.451Z,5.14
2016-12-21T08:14:02.770Z,5.14
2016-12-21T08:15:02.422Z,4.94
2016-12-21T08:16:02.413Z,4.96
2016-12-21T08:17:02.398Z,4.97
2016-12-21T08:18:02.390Z,5.35
2016-12-21T08:19:02.378Z,5.19
2016-12-21T08:20:02.362Z,4.99
2016-12-21T08:21:02.356Z,5.05
2016-12-21T08:22:02.339Z,5.01
2016-12-21T08:23:02.385Z,5.02
2016-12-21T08:24:02.316Z,5.09
2016-12-21T08:25:02.309Z,5.26
2016-12-21T08:26:02.598Z,5.41
2016-12-21T08:27:02.282Z,5.8
2016-12-21T08:28:02.269Z,5.51
2016-12-21T08:29:02.256Z,5.67
2016-12-21T08:30:02.247Z,6.03
2016-12-21T08:31:02.231Z,6.36
2016-12-21T08:32:02.222Z,6.69
2016-12-21T08:33:02.211Z,7.29
2016-12-21T08:34:02.197Z,7.6
2016-12-21T08:35:02.188Z,8.02
2016-12-21T08:36:02.173Z,8.2
2016-12-21T08:37:02.164Z,8.21
2016-12-21T08:38:02.455Z,8
2016-12-21T08:39:02.139Z,8
2016-12-21T08:40:02.129Z,7.91
2016-12-21T08:41:02.123Z,8.14
2016-12-21T08:42:02.107Z,8.12
2016-12-21T08:43:02.396Z,7.94
2016-12-21T08:44:02.094Z,7.81
2016-12-21T08:45:02.074Z,8.13
2016-12-21T08:46:02.063Z,8.27
2016-12-21T08:47:02.054Z,8.39
2016-12-21T08:48:02.044Z,8.52
2016-12-21T08:49:02.031Z,8.65
2016-12-21T08:50:02.023Z,8.79
2016-12-21T08:51:02.013Z,8.61
2016-12-21T08:52:02.006Z,8.7
2016-12-21T08:53:01.990Z,8.71
2016-12-21T08:54:01.980Z,8.67
2016-12-21T08:55:01.971Z,8.31
2016-12-21T08:56:01.964Z,8.12
2016-12-21T08:57:01.952Z,8.29
2016-12-21T08:58:01.942Z,8.73
2016-12-21T08:59:01.933Z,8.85
2016-12-21T09:00:01.921Z,8.7
2016-12-21T09:01:02.215Z,8.85
2016-12-21T09:02:02.235Z,8.67
2016-12-21T09:03:01.892Z,8.32
2016-12-21T09:04:01.884Z,7.95
2016-12-21T09:05:01.868Z,8.14
2016-12-21T09:06:01.863Z,8.52
2016-12-21T09:07:01.853Z,8.8
2016-12-21T09:08:01.839Z,8.97
2016-12-21T09:09:01.828Z,9.08
2016-12-21T09:10:01.820Z,9.23
2016-12-21T09:11:01.812Z,9.38
2016-12-21T09:12:01.801Z,9.27
2016-12-21T09:13:01.794Z,9
2016-12-21T09:14:01.783Z,8.82
2016-12-21T09:15:01.770Z,8.5
2016-12-21T09:16:01.760Z,8.45
2016-12-21T09:17:01.751Z,8.25
2016-12-21T09:18:01.740Z,8.06
2016-12-21T09:19:01.735Z,8.14
2016-12-21T09:20:01.718Z,8.29
2016-12-21T09:21:01.710Z,8.46
2016-12-21T09:22:01.701Z,8.79
2016-12-21T09:23:01.691Z,9.24
2016-12-21T09:24:01.693Z,9.06
2016-12-21T09:25:01.676Z,9.22
2016-12-21T09:26:01.663Z,9.27
2016-12-21T09:27:01.652Z,9.16
2016-12-21T09:28:01.650Z,9.2
2016-12-21T09:29:01.633Z,9.35
2016-12-21T09:30:01.626Z,9.53
2016-12-21T09:31:01.617Z,9.35
2016-12-21T09:32:01.612Z,9.24
2016-12-21T09:33:01.628Z,9.15
2016-12-21T09:34:01.615Z,8.96
2016-12-21T09:35:01.579Z,9.32
2016-12-21T09:36:01.570Z,9.65
2016-12-21T09:37:01.562Z,9.88
2016-12-21T09:38:01.550Z,10.16
2016-12-21T09:39:01.540Z,10.11
2016-12-21T09:40:01.529Z,10.01
2016-12-21T09:41:01.524Z,9.45
2016-12-21T09:42:01.512Z,9.58
2016-12-21T09:43:01.505Z,9.96
2016-12-21T09:44:01.496Z,10.25
2016-12-21T09:45:01.494Z,10.18
2016-12-21T09:46:01.480Z,10.01
2016-12-21T09:47:01.472Z,9.92
2016-12-21T09:48:01.463Z,10.2
2016-12-21T09:49:01.450Z,10.24
2016-12-21T09:50:01.446Z,10.42
2016-12-21T09:51:01.436Z,10.84
2016-12-21T09:52:01.456Z,10.99
2016-12-21T09:53:01.423Z,10.94
2016-12-21T09:54:01.442Z,11.16
2016-12-21T09:55:01.405Z,11.26
2016-12-21T09:56:01.389Z,11.24
2016-12-21T09:57:01.415Z,11.11
2016-12-21T09:58:01.378Z,10.88
2016-12-21T09:59:01.370Z,10.94
2016-12-21T10:00:01.358Z,10.93
2016-12-21T10:01:01.360Z,10.9
2016-12-21T10:02:01.350Z,10.6
2016-12-21T10:03:01.343Z,10.25
2016-12-21T10:04:01.330Z,10.35
2016-12-21T10:05:01.315Z,10.44
2016-12-21T10:06:01.310Z,10.58
2016-12-21T10:07:01.304Z,10.81
2016-12-21T10:08:01.327Z,10.95
2016-12-21T10:09:01.283Z,11.11
2016-12-21T10:10:01.280Z,11.19
2016-12-21T10:11:01.273Z,11.38
2016-12-21T10:12:01.262Z,10.99
2016-12-21T10:13:01.251Z,11.11
2016-12-21T10:14:01.243Z,10.65
2016-12-21T10:15:01.281Z,10.66
2016-12-21T10:16:01.227Z,10.98
2016-12-21T10:17:01.217Z,11.38
2016-12-21T10:18:01.217Z,11.28
2016-12-21T10:19:01.505Z,11.51
2016-12-21T10:20:01.192Z,11.51
2016-12-21T10:21:01.187Z,11.46
2016-12-21T10:22:01.178Z,11.33
2016-12-21T10:23:01.173Z,11.35
2016-12-21T10:24:01.161Z,11.31
2016-12-21T10:25:01.157Z,11.62
2016-12-21T10:26:01.145Z,12.05
2016-12-21T10:27:01.145Z,12.18
2016-12-21T10:28:01.133Z,12.15
2016-12-21T10:29:01.125Z,12.19
2016-12-21T10:30:01.123Z,12.05
2016-12-21T10:31:01.115Z,11.77
2016-12-21T10:32:01.103Z,11.59
2016-12-21T10:33:01.407Z,11.49
2016-12-21T10:34:01.088Z,11.27
2016-12-21T10:35:01.084Z,11.02
2016-12-21T10:36:01.082Z,10.83
2016-12-21T10:37:01.066Z,10.42
2016-12-21T10:38:01.060Z,10.51
2016-12-21T10:39:01.055Z,10.84
2016-12-21T10:40:01.050Z,10.8
2016-12-21T10:41:01.036Z,11.12
2016-12-21T10:42:01.036Z,11.31
2016-12-21T10:43:01.025Z,11.79
2016-12-21T10:44:01.022Z,12.13
2016-12-21T10:45:01.011Z,12.33
2016-12-21T10:46:01.002Z,12.16
2016-12-21T10:47:01.000Z,12.04
2016-12-21T10:48:00.990Z,11.64
2016-12-21T10:49:00.983Z,11.69
2016-12-21T10:50:00.971Z,11.78
2016-12-21T10:51:00.966Z,11.63
2016-12-21T10:52:00.960Z,10.94
2016-12-21T10:53:00.953Z,10.7
2016-12-21T10:54:00.946Z,10.63
2016-12-21T10:55:00.937Z,10.94
2016-12-21T10:56:00.928Z,10.76
2016-12-21T10:57:00.927Z,10.44
2016-12-21T10:58:00.916Z,10.35
2016-12-21T10:59:00.916Z,10.14
2016-12-21T11:00:00.901Z,10.06
2016-12-21T11:01:00.947Z,10.02
2016-12-21T11:02:00.887Z,9.96
2016-12-21T11:03:00.885Z,9.65
2016-12-21T11:04:00.872Z,9.96
2016-12-21T11:05:00.861Z,10.42
2016-12-21T11:06:00.855Z,10.81
2016-12-21T11:07:00.851Z,11.23
2016-12-21T11:08:00.848Z,11.56
2016-12-21T11:09:00.833Z,11.97
2016-12-21T11:10:00.829Z,11.79
2016-12-21T11:11:00.818Z,10.72
2016-12-21T11:12:00.812Z,9.89
2016-12-21T11:13:00.801Z,9.41
2016-12-21T11:14:00.794Z,9.71
2016-12-21T11:15:00.792Z,9.86
2016-12-21T11:16:00.778Z,9.48
2016-12-21T11:17:00.776Z,9.12
2016-12-21T11:18:00.760Z,9.37
2016-12-21T11:19:00.755Z,9.86
2016-12-21T11:20:00.742Z,10.13
2016-12-21T11:21:00.733Z,10.1
2016-12-21T11:22:00.723Z,10.04
2016-12-21T11:23:00.721Z,10.13
2016-12-21T11:24:00.708Z,10.28
2016-12-21T11:25:00.707Z,10.49
2016-12-21T11:26:00.695Z,10.55
2016-12-21T11:27:00.688Z,10.62
2016-12-21T11:28:00.679Z,10.73
2016-12-21T11:29:00.675Z,10.62
2016-12-21T11:30:00.661Z,10.47
2016-12-21T11:31:00.652Z,10.39
2016-12-21T11:32:00.645Z,10.22
2016-12-21T11:33:00.637Z,10.04
2016-12-21T11:34:00.631Z,9.93
2016-12-21T11:35:00.626Z,9.95
2016-12-21T11:36:00.616Z,9.68
2016-12-21T11:37:00.605Z,9.31
2016-12-21T11:38:00.632Z,9.27
2016-12-21T11:39:00.591Z,8.97
2016-12-21T11:40:00.584Z,8.96
2016-12-21T11:41:00.570Z,8.75
2016-12-21T11:42:00.569Z,9.15
2016-12-21T11:43:00.571Z,9.6
2016-12-21T11:44:00.549Z,9.91
2016-12-21T11:45:00.538Z,9.99
2016-12-21T11:46:00.533Z,10.18
2016-12-21T11:47:00.525Z,10.39
2016-12-21T11:48:00.513Z,10.65
2016-12-21T11:49:00.504Z,10.91
2016-12-21T11:50:00.498Z,11.21
2016-12-21T11:51:00.489Z,11.46
2016-12-21T11:52:00.478Z,11.42
2016-12-21T11:53:00.470Z,11.26
2016-12-21T11:54:00.466Z,11.56
2016-12-21T11:55:00.453Z,11.56
2016-12-21T11:56:00.450Z,11.75
2016-12-21T11:57:00.436Z,11.6
2016-12-21T11:58:00.431Z,11.63
2016-12-21T11:59:00.417Z,11.57
2016-12-21T12:00:00.409Z,11.79
2016-12-21T12:01:00.405Z,11.74
2016-12-21T12:02:00.396Z,11.97
2016-12-21T12:03:00.383Z,11.77
2016-12-21T12:04:00.380Z,11.59
2016-12-21T12:05:00.368Z,11.33
2016-12-21T12:06:00.358Z,10.98
2016-12-21T12:07:00.353Z,11.21
2016-12-21T12:08:00.342Z,11.26
2016-12-21T12:09:00.336Z,11.05
2016-12-21T12:10:00.328Z,11.05
2016-12-21T12:11:00.317Z,11.41
2016-12-21T12:12:00.312Z,11.64
2016-12-21T12:13:00.302Z,11.67
2016-12-21T12:14:00.297Z,11.64
2016-12-21T12:15:00.283Z,11.84
2016-12-21T12:16:00.280Z,11.85
2016-12-21T12:17:00.269Z,11.75
2016-12-21T12:18:00.261Z,11.75
2016-12-21T12:19:00.250Z,11.19
2016-12-21T12:20:00.246Z,11.11
2016-12-21T12:21:00.238Z,10.95
2016-12-21T12:22:00.259Z,10.94
2016-12-21T12:23:00.218Z,10.73
2016-12-21T12:24:00.216Z,11.05
2016-12-21T12:25:00.199Z,11.3
2016-12-21T12:26:00.202Z,11.72
2016-12-21T12:27:00.184Z,11.9
2016-12-21T12:28:00.207Z,12
2016-12-21T12:29:00.169Z,12.12
2016-12-21T12:30:00.158Z,12.12
2016-12-21T12:31:00.156Z,11.77
2016-12-21T12:32:00.141Z,11.27
2016-12-21T12:33:00.133Z,10.66
2016-12-21T12:34:00.124Z,10.42
2016-12-21T12:35:00.119Z,10.04
2016-12-21T12:36:00.108Z,9.45
2016-12-21T12:37:00.098Z,9.86
2016-12-21T12:38:00.086Z,10.04
2016-12-21T12:39:00.078Z,10.2
2016-12-21T12:40:00.073Z,10.47
2016-12-21T12:41:00.063Z,10.55
2016-12-21T12:42:00.061Z,10.46
2016-12-21T12:43:00.042Z,9.99
2016-12-21T12:44:00.036Z,9.77
2016-12-21T12:45:00.033Z,9.73
2016-12-21T12:46:00.023Z,9.78
2016-12-21T12:47:00.009Z,9.59
2016-12-21T12:48:00.007Z,9.34
2016-12-21T12:48:59.987Z,9.32
2016-12-21T12:49:59.981Z,9.48
2016-12-21T12:50:59.974Z,9.41
2016-12-21T12:51:59.973Z,9.58
2016-12-21T12:52:59.966Z,9.73
2016-12-21T12:53:59.951Z,9.75
2016-12-21T12:54:59.938Z,9.92
2016-12-21T12:55:59.929Z,9.99
2016-12-21T12:56:59.922Z,9.99
2016-12-21T12:57:59.914Z,9.96
2016-12-21T12:58:59.910Z,9.93
2016-12-21T12:59:59.897Z,10.02
2016-12-21T13:00:59.924Z,10.01
2016-12-21T13:01:59.880Z,10.18
2016-12-21T13:02:59.873Z,10.01
2016-12-21T13:03:59.865Z,9.88
2016-12-21T13:04:59.854Z,9.99
2016-12-21T13:05:59.846Z,9.22
2016-12-21T13:06:59.840Z,9.13